sensor_id;sensor_type;location;lat;lon;timestamp;temperature;humidity
7574;DHT22;3828;48.922;9.116;2022-11-20T00:01:20;4.80;99.90
7574;DHT22;3828;48.922;9.116;2022-11-20T00:03:48;4.80;99.90
7574;DHT22;3828;48.922;9.116;2022-11-20T00:06:17;4.80;99.90
7574;DHT22;3828;48.922;9.116;2022-11-20T00:08:44;4.80;99.90
7574;DHT22;3828;48.922;9.116;2022-11-20T00:11:13;4.80;99.90
7574;DHT22;3828;48.922;9.116;2022-11-20T00:13:41;4.80;99.90
7574;DHT22;3828;48.922;9.116;2022-11-20T00:16:12;4.80;99.90
7574;DHT22;3828;48.922;9.116;2022-11-20T00:18:39;4.80;99.90
7574;DHT22;3828;48.922;9.116;2022-11-20T00:21:10;4.80;99.90
7574;DHT22;3828;48.922;9.116;2022-11-20T00:23:37;4.80;99.90
7574;DHT22;3828;48.922;9.116;2022-11-20T00:26:05;4.80;99.90
7574;DHT22;3828;48.922;9.116;2022-11-20T00:28:33;4.80;99.90
7574;DHT22;3828;48.922;9.116;2022-11-20T00:31:01;7.20;99.90
7574;DHT22;3828;48.922;9.116;2022-11-20T00:33:30;4.90;99.90
7574;DHT22;3828;48.922;9.116;2022-11-20T00:36:01;4.90;99.90
7574;DHT22;3828;48.922;9.116;2022-11-20T00:38:29;4.90;99.90
7574;DHT22;3828;48.922;9.116;2022-11-20T00:40:57;4.90;99.90
7574;DHT22;3828;48.922;9.116;2022-11-20T00:43:24;4.90;99.90
7574;DHT22;3828;48.922;9.116;2022-11-20T00:45:51;4.90;99.90
7574;DHT22;3828;48.922;9.116;2022-11-20T00:48:22;4.90;99.90
7574;DHT22;3828;48.922;9.116;2022-11-20T00:50:50;4.90;99.90
7574;DHT22;3828;48.922;9.116;2022-11-20T00:53:17;4.90;99.90
7574;DHT22;3828;48.922;9.116;2022-11-20T00:55:52;4.90;99.90
7574;DHT22;3828;48.922;9.116;2022-11-20T00:58:19;4.90;99.90
7574;DHT22;3828;48.922;9.116;2022-11-20T01:00:46;4.80;99.90
7574;DHT22;3828;48.922;9.116;2022-11-20T01:03:12;4.80;99.90
7574;DHT22;3828;48.922;9.116;2022-11-20T01:05:39;4.80;99.90
7574;DHT22;3828;48.922;9.116;2022-11-20T01:08:07;4.70;99.90
7574;DHT22;3828;48.922;9.116;2022-11-20T01:10:34;4.70;99.90
7574;DHT22;3828;48.922;9.116;2022-11-20T01:13:01;4.70;99.90
7574;DHT22;3828;48.922;9.116;2022-11-20T01:15:45;4.80;99.90
7574;DHT22;3828;48.922;9.116;2022-11-20T01:18:12;4.80;99.90
7574;DHT22;3828;48.922;9.116;2022-11-20T01:20:39;4.80;99.90
7574;DHT22;3828;48.922;9.116;2022-11-20T01:23:07;4.80;99.90
7574;DHT22;3828;48.922;9.116;2022-11-20T01:25:34;4.80;99.90
7574;DHT22;3828;48.922;9.116;2022-11-20T01:28:01;4.90;99.90
7574;DHT22;3828;48.922;9.116;2022-11-20T01:30:28;4.90;99.90
7574;DHT22;3828;48.922;9.116;2022-11-20T01:32:55;4.90;99.90
7574;DHT22;3828;48.922;9.116;2022-11-20T01:35:22;4.90;99.90
7574;DHT22;3828;48.922;9.116;2022-11-20T01:37:50;5.00;99.90
7574;DHT22;3828;48.922;9.116;2022-11-20T01:40:18;4.90;99.90
7574;DHT22;3828;48.922;9.116;2022-11-20T01:42:51;5.00;99.90
7574;DHT22;3828;48.922;9.116;2022-11-20T01:46:12;5.00;99.90
7574;DHT22;3828;48.922;9.116;2022-11-20T01:48:48;5.00;99.90
7574;DHT22;3828;48.922;9.116;2022-11-20T01:51:22;5.10;99.90
7574;DHT22;3828;48.922;9.116;2022-11-20T01:53:52;5.10;99.90
7574;DHT22;3828;48.922;9.116;2022-11-20T01:56:21;5.10;99.90
7574;DHT22;3828;48.922;9.116;2022-11-20T01:58:50;5.20;99.90
7574;DHT22;3828;48.922;9.116;2022-11-20T02:01:18;6.50;99.90
7574;DHT22;3828;48.922;9.116;2022-11-20T02:03:47;5.10;99.90
7574;DHT22;3828;48.922;9.116;2022-11-20T02:06:17;5.20;99.90
7574;DHT22;3828;48.922;9.116;2022-11-20T02:08:45;5.20;99.90
7574;DHT22;3828;48.922;9.116;2022-11-20T02:11:12;5.10;99.90
7574;DHT22;3828;48.922;9.116;2022-11-20T02:13:41;5.30;99.90
7574;DHT22;3828;48.922;9.116;2022-11-20T02:16:16;5.20;99.90
7574;DHT22;3828;48.922;9.116;2022-11-20T02:18:44;5.20;99.90
7574;DHT22;3828;48.922;9.116;2022-11-20T02:21:21;5.20;99.90
7574;DHT22;3828;48.922;9.116;2022-11-20T02:23:59;5.20;99.90
7574;DHT22;3828;48.922;9.116;2022-11-20T02:26:28;5.30;99.90
7574;DHT22;3828;48.922;9.116;2022-11-20T02:28:55;5.30;99.90
7574;DHT22;3828;48.922;9.116;2022-11-20T02:31:23;5.30;99.90
7574;DHT22;3828;48.922;9.116;2022-11-20T02:33:54;5.30;99.90
7574;DHT22;3828;48.922;9.116;2022-11-20T02:36:21;5.30;99.90
7574;DHT22;3828;48.922;9.116;2022-11-20T02:41:18;5.40;99.90
7574;DHT22;3828;48.922;9.116;2022-11-20T02:43:45;5.50;99.90
7574;DHT22;3828;48.922;9.116;2022-11-20T02:46:12;5.50;99.90
7574;DHT22;3828;48.922;9.116;2022-11-20T02:48:39;6.60;99.90
7574;DHT22;3828;48.922;9.116;2022-11-20T02:51:05;5.50;99.90
7574;DHT22;3828;48.922;9.116;2022-11-20T02:53:32;5.60;99.90
7574;DHT22;3828;48.922;9.116;2022-11-20T02:55:59;5.60;99.90
7574;DHT22;3828;48.922;9.116;2022-11-20T02:58:27;5.60;99.90
7574;DHT22;3828;48.922;9.116;2022-11-20T03:00:54;5.70;99.90
7574;DHT22;3828;48.922;9.116;2022-11-20T03:03:20;5.70;99.90
7574;DHT22;3828;48.922;9.116;2022-11-20T03:05:47;5.70;99.90
7574;DHT22;3828;48.922;9.116;2022-11-20T03:08:14;5.70;99.90
7574;DHT22;3828;48.922;9.116;2022-11-20T03:10:41;5.70;99.90
7574;DHT22;3828;48.922;9.116;2022-11-20T03:13:07;5.90;99.90
7574;DHT22;3828;48.922;9.116;2022-11-20T03:15:37;5.90;99.90
7574;DHT22;3828;48.922;9.116;2022-11-20T03:18:04;5.90;99.90
7574;DHT22;3828;48.922;9.116;2022-11-20T03:20:32;5.90;99.90
7574;DHT22;3828;48.922;9.116;2022-11-20T03:22:59;5.90;99.90
7574;DHT22;3828;48.922;9.116;2022-11-20T03:25:26;5.80;99.90
7574;DHT22;3828;48.922;9.116;2022-11-20T03:27:53;5.80;99.90
7574;DHT22;3828;48.922;9.116;2022-11-20T03:30:20;5.80;99.90
7574;DHT22;3828;48.922;9.116;2022-11-20T03:32:48;5.80;99.90
7574;DHT22;3828;48.922;9.116;2022-11-20T03:35:15;5.80;99.90
7574;DHT22;3828;48.922;9.116;2022-11-20T03:37:43;5.80;99.90
7574;DHT22;3828;48.922;9.116;2022-11-20T03:40:11;7.40;99.90
7574;DHT22;3828;48.922;9.116;2022-11-20T03:42:38;5.80;99.90
7574;DHT22;3828;48.922;9.116;2022-11-20T03:45:14;5.80;99.90
7574;DHT22;3828;48.922;9.116;2022-11-20T03:47:42;5.90;99.90
7574;DHT22;3828;48.922;9.116;2022-11-20T03:50:11;5.90;99.90
7574;DHT22;3828;48.922;9.116;2022-11-20T03:55:06;5.90;99.90
7574;DHT22;3828;48.922;9.116;2022-11-20T03:57:33;5.90;99.90
7574;DHT22;3828;48.922;9.116;2022-11-20T04:00:00;5.90;99.90
7574;DHT22;3828;48.922;9.116;2022-11-20T04:02:27;5.90;99.90
7574;DHT22;3828;48.922;9.116;2022-11-20T04:04:54;5.80;99.90
7574;DHT22;3828;48.922;9.116;2022-11-20T04:07:22;5.80;99.90
7574;DHT22;3828;48.922;9.116;2022-11-20T04:09:48;5.70;99.90
7574;DHT22;3828;48.922;9.116;2022-11-20T04:12:15;5.60;99.90
7574;DHT22;3828;48.922;9.116;2022-11-20T04:14:42;5.70;99.90
7574;DHT22;3828;48.922;9.116;2022-11-20T04:17:09;5.70;99.90
7574;DHT22;3828;48.922;9.116;2022-11-20T04:19:35;5.70;99.90
7574;DHT22;3828;48.922;9.116;2022-11-20T04:22:02;5.70;99.90
7574;DHT22;3828;48.922;9.116;2022-11-20T04:24:30;5.60;99.90
7574;DHT22;3828;48.922;9.116;2022-11-20T04:26:57;5.60;99.90
7574;DHT22;3828;48.922;9.116;2022-11-20T04:29:24;5.60;99.90
7574;DHT22;3828;48.922;9.116;2022-11-20T04:31:51;5.60;99.90
7574;DHT22;3828;48.922;9.116;2022-11-20T04:34:17;5.60;99.90
7574;DHT22;3828;48.922;9.116;2022-11-20T04:36:44;5.60;99.90
7574;DHT22;3828;48.922;9.116;2022-11-20T04:39:12;5.70;99.90
7574;DHT22;3828;48.922;9.116;2022-11-20T04:41:41;5.70;99.90
7574;DHT22;3828;48.922;9.116;2022-11-20T04:44:07;5.60;99.90
7574;DHT22;3828;48.922;9.116;2022-11-20T04:46:36;5.50;99.90
7574;DHT22;3828;48.922;9.116;2022-11-20T04:49:03;5.50;99.90
7574;DHT22;3828;48.922;9.116;2022-11-20T04:51:31;5.40;99.90
7574;DHT22;3828;48.922;9.116;2022-11-20T04:53:58;5.40;99.90
7574;DHT22;3828;48.922;9.116;2022-11-20T04:56:25;5.40;99.90
7574;DHT22;3828;48.922;9.116;2022-11-20T04:58:54;5.40;99.90
7574;DHT22;3828;48.922;9.116;2022-11-20T05:01:22;5.40;99.90
7574;DHT22;3828;48.922;9.116;2022-11-20T05:03:50;5.40;99.90
7574;DHT22;3828;48.922;9.116;2022-11-20T05:06:18;5.40;99.90
7574;DHT22;3828;48.922;9.116;2022-11-20T05:08:45;5.40;99.90
7574;DHT22;3828;48.922;9.116;2022-11-20T05:11:14;5.40;99.90
7574;DHT22;3828;48.922;9.116;2022-11-20T05:13:41;5.40;99.90
7574;DHT22;3828;48.922;9.116;2022-11-20T05:16:11;6.20;99.90
7574;DHT22;3828;48.922;9.116;2022-11-20T05:18:39;5.40;99.90
7574;DHT22;3828;48.922;9.116;2022-11-20T05:21:07;5.40;99.90
7574;DHT22;3828;48.922;9.116;2022-11-20T05:23:34;5.40;99.90
7574;DHT22;3828;48.922;9.116;2022-11-20T05:26:01;5.40;99.90
7574;DHT22;3828;48.922;9.116;2022-11-20T05:28:29;5.50;99.90
7574;DHT22;3828;48.922;9.116;2022-11-20T05:31:04;5.50;99.90
7574;DHT22;3828;48.922;9.116;2022-11-20T05:33:32;5.50;99.90
7574;DHT22;3828;48.922;9.116;2022-11-20T05:38:26;5.50;99.90
7574;DHT22;3828;48.922;9.116;2022-11-20T05:40:53;5.50;99.90
7574;DHT22;3828;48.922;9.116;2022-11-20T05:43:20;5.60;99.90
7574;DHT22;3828;48.922;9.116;2022-11-20T05:45:52;5.60;99.90
7574;DHT22;3828;48.922;9.116;2022-11-20T05:48:19;5.60;99.90
7574;DHT22;3828;48.922;9.116;2022-11-20T05:50:47;5.60;99.90
7574;DHT22;3828;48.922;9.116;2022-11-20T05:53:14;8.20;99.90
7574;DHT22;3828;48.922;9.116;2022-11-20T05:55:41;5.60;99.90
7574;DHT22;3828;48.922;9.116;2022-11-20T06:00:35;5.70;99.90
7574;DHT22;3828;48.922;9.116;2022-11-20T06:03:02;5.70;99.90
7574;DHT22;3828;48.922;9.116;2022-11-20T06:05:30;5.70;99.90
7574;DHT22;3828;48.922;9.116;2022-11-20T06:08:00;5.70;99.90
7574;DHT22;3828;48.922;9.116;2022-11-20T06:10:27;5.80;99.90
7574;DHT22;3828;48.922;9.116;2022-11-20T06:12:56;5.80;99.90
7574;DHT22;3828;48.922;9.116;2022-11-20T06:15:23;5.80;99.90
7574;DHT22;3828;48.922;9.116;2022-11-20T06:17:52;5.80;99.90
7574;DHT22;3828;48.922;9.116;2022-11-20T06:20:18;6.10;99.90
7574;DHT22;3828;48.922;9.116;2022-11-20T06:22:46;5.80;99.90
7574;DHT22;3828;48.922;9.116;2022-11-20T06:25:14;5.90;99.90
7574;DHT22;3828;48.922;9.116;2022-11-20T06:27:41;5.90;99.90
7574;DHT22;3828;48.922;9.116;2022-11-20T06:30:09;5.90;99.90
7574;DHT22;3828;48.922;9.116;2022-11-20T06:32:36;6.00;99.90
7574;DHT22;3828;48.922;9.116;2022-11-20T06:35:03;6.00;99.90
7574;DHT22;3828;48.922;9.116;2022-11-20T06:37:30;6.00;99.90
7574;DHT22;3828;48.922;9.116;2022-11-20T06:39:57;5.90;99.90
7574;DHT22;3828;48.922;9.116;2022-11-20T06:42:25;5.90;99.90
7574;DHT22;3828;48.922;9.116;2022-11-20T06:47:19;5.80;99.90
7574;DHT22;3828;48.922;9.116;2022-11-20T06:49:46;5.90;99.90
7574;DHT22;3828;48.922;9.116;2022-11-20T06:52:12;5.90;99.90
7574;DHT22;3828;48.922;9.116;2022-11-20T06:54:39;5.90;99.90
7574;DHT22;3828;48.922;9.116;2022-11-20T06:57:06;5.90;99.90
7574;DHT22;3828;48.922;9.116;2022-11-20T06:59:34;5.90;99.90
7574;DHT22;3828;48.922;9.116;2022-11-20T07:02:01;7.20;99.90
7574;DHT22;3828;48.922;9.116;2022-11-20T07:04:28;6.00;99.90
7574;DHT22;3828;48.922;9.116;2022-11-20T07:09:21;6.00;99.90
7574;DHT22;3828;48.922;9.116;2022-11-20T07:11:48;6.10;99.90
7574;DHT22;3828;48.922;9.116;2022-11-20T07:14:15;6.20;99.90
7574;DHT22;3828;48.922;9.116;2022-11-20T07:16:43;6.20;99.90
7574;DHT22;3828;48.922;9.116;2022-11-20T07:19:10;6.30;99.90
7574;DHT22;3828;48.922;9.116;2022-11-20T07:21:37;6.30;99.90
7574;DHT22;3828;48.922;9.116;2022-11-20T07:24:04;6.30;99.90
7574;DHT22;3828;48.922;9.116;2022-11-20T07:28:57;6.50;99.90
7574;DHT22;3828;48.922;9.116;2022-11-20T07:31:24;6.50;99.90
7574;DHT22;3828;48.922;9.116;2022-11-20T07:33:52;6.60;99.90
7574;DHT22;3828;48.922;9.116;2022-11-20T07:36:19;6.50;99.90
7574;DHT22;3828;48.922;9.116;2022-11-20T07:41:13;6.50;99.90
7574;DHT22;3828;48.922;9.116;2022-11-20T07:43:40;6.50;99.90
7574;DHT22;3828;48.922;9.116;2022-11-20T07:46:07;6.60;99.90
7574;DHT22;3828;48.922;9.116;2022-11-20T07:48:34;6.60;99.90
7574;DHT22;3828;48.922;9.116;2022-11-20T07:51:02;6.60;99.90
7574;DHT22;3828;48.922;9.116;2022-11-20T07:53:29;6.60;99.90
7574;DHT22;3828;48.922;9.116;2022-11-20T07:55:59;6.60;99.90
7574;DHT22;3828;48.922;9.116;2022-11-20T07:58:26;6.60;99.90
7574;DHT22;3828;48.922;9.116;2022-11-20T08:00:55;6.50;99.90
7574;DHT22;3828;48.922;9.116;2022-11-20T08:03:21;6.50;99.90
7574;DHT22;3828;48.922;9.116;2022-11-20T08:05:49;6.50;99.90
7574;DHT22;3828;48.922;9.116;2022-11-20T08:08:17;6.50;99.90
7574;DHT22;3828;48.922;9.116;2022-11-20T08:10:44;6.60;99.90
7574;DHT22;3828;48.922;9.116;2022-11-20T08:13:11;6.60;99.90
7574;DHT22;3828;48.922;9.116;2022-11-20T08:15:57;7.90;99.90
7574;DHT22;3828;48.922;9.116;2022-11-20T08:18:24;6.70;99.90
7574;DHT22;3828;48.922;9.116;2022-11-20T08:20:51;6.80;99.90
7574;DHT22;3828;48.922;9.116;2022-11-20T08:23:19;6.80;99.90
7574;DHT22;3828;48.922;9.116;2022-11-20T08:25:49;7.00;99.90
7574;DHT22;3828;48.922;9.116;2022-11-20T08:28:16;7.20;99.90
7574;DHT22;3828;48.922;9.116;2022-11-20T08:30:43;7.30;99.90
7574;DHT22;3828;48.922;9.116;2022-11-20T08:35:38;7.40;99.90
7574;DHT22;3828;48.922;9.116;2022-11-20T08:38:06;7.40;99.90
7574;DHT22;3828;48.922;9.116;2022-11-20T08:40:34;7.40;99.90
7574;DHT22;3828;48.922;9.116;2022-11-20T08:43:01;7.40;99.90
7574;DHT22;3828;48.922;9.116;2022-11-20T08:45:28;7.40;99.90
7574;DHT22;3828;48.922;9.116;2022-11-20T08:48:00;7.40;99.90
7574;DHT22;3828;48.922;9.116;2022-11-20T08:53:02;7.40;99.90
7574;DHT22;3828;48.922;9.116;2022-11-20T08:55:29;7.40;99.90
7574;DHT22;3828;48.922;9.116;2022-11-20T08:57:57;7.50;99.90
7574;DHT22;3828;48.922;9.116;2022-11-20T09:00:24;7.50;99.90
7574;DHT22;3828;48.922;9.116;2022-11-20T09:02:50;7.50;99.90
7574;DHT22;3828;48.922;9.116;2022-11-20T09:07:44;7.50;99.90
7574;DHT22;3828;48.922;9.116;2022-11-20T09:10:11;7.40;99.90
7574;DHT22;3828;48.922;9.116;2022-11-20T09:12:38;7.40;99.90
7574;DHT22;3828;48.922;9.116;2022-11-20T09:15:07;7.40;99.90
7574;DHT22;3828;48.922;9.116;2022-11-20T09:17:34;7.50;99.90
7574;DHT22;3828;48.922;9.116;2022-11-20T09:20:01;7.50;99.90
7574;DHT22;3828;48.922;9.116;2022-11-20T09:22:28;7.50;99.90
7574;DHT22;3828;48.922;9.116;2022-11-20T09:24:54;7.50;99.90
7574;DHT22;3828;48.922;9.116;2022-11-20T09:27:21;7.50;99.90
7574;DHT22;3828;48.922;9.116;2022-11-20T09:29:48;7.60;99.90
7574;DHT22;3828;48.922;9.116;2022-11-20T09:32:16;7.60;99.90
7574;DHT22;3828;48.922;9.116;2022-11-20T09:42:15;7.70;99.90
7574;DHT22;3828;48.922;9.116;2022-11-20T09:45:01;7.70;99.90
7574;DHT22;3828;48.922;9.116;2022-11-20T09:47:41;7.70;99.90
7574;DHT22;3828;48.922;9.116;2022-11-20T09:50:23;7.80;99.90
7574;DHT22;3828;48.922;9.116;2022-11-20T09:53:11;7.80;99.90
7574;DHT22;3828;48.922;9.116;2022-11-20T09:55:38;7.80;99.90
7574;DHT22;3828;48.922;9.116;2022-11-20T09:58:06;7.80;99.90
7574;DHT22;3828;48.922;9.116;2022-11-20T10:00:35;7.80;99.90
7574;DHT22;3828;48.922;9.116;2022-11-20T10:03:12;7.90;99.90
7574;DHT22;3828;48.922;9.116;2022-11-20T10:05:43;7.90;99.90
7574;DHT22;3828;48.922;9.116;2022-11-20T10:08:16;7.90;99.90
7574;DHT22;3828;48.922;9.116;2022-11-20T10:10:45;7.90;99.90
7574;DHT22;3828;48.922;9.116;2022-11-20T10:13:30;7.80;99.90
7574;DHT22;3828;48.922;9.116;2022-11-20T10:16:08;7.80;99.90
7574;DHT22;3828;48.922;9.116;2022-11-20T10:18:48;7.80;99.90
7574;DHT22;3828;48.922;9.116;2022-11-20T10:21:26;7.70;99.90
7574;DHT22;3828;48.922;9.116;2022-11-20T10:26:51;7.70;99.90
7574;DHT22;3828;48.922;9.116;2022-11-20T10:29:26;7.70;99.90
7574;DHT22;3828;48.922;9.116;2022-11-20T10:31:59;7.70;99.90
7574;DHT22;3828;48.922;9.116;2022-11-20T10:34:33;7.70;99.90
7574;DHT22;3828;48.922;9.116;2022-11-20T10:37:05;7.70;99.90
7574;DHT22;3828;48.922;9.116;2022-11-20T10:39:36;7.70;99.90
7574;DHT22;3828;48.922;9.116;2022-11-20T10:42:09;7.60;99.90
7574;DHT22;3828;48.922;9.116;2022-11-20T10:44:38;7.50;99.90
7574;DHT22;3828;48.922;9.116;2022-11-20T10:47:28;9.40;99.90
7574;DHT22;3828;48.922;9.116;2022-11-20T10:50:03;7.30;99.90
7574;DHT22;3828;48.922;9.116;2022-11-20T10:52:37;7.30;99.90
7574;DHT22;3828;48.922;9.116;2022-11-20T10:55:21;7.30;99.90
7574;DHT22;3828;48.922;9.116;2022-11-20T10:57:54;7.30;99.90
7574;DHT22;3828;48.922;9.116;2022-11-20T11:00:24;7.20;99.90
7574;DHT22;3828;48.922;9.116;2022-11-20T11:02:52;7.30;99.90
7574;DHT22;3828;48.922;9.116;2022-11-20T11:05:33;7.30;99.90
7574;DHT22;3828;48.922;9.116;2022-11-20T11:08:03;7.30;99.90
7574;DHT22;3828;48.922;9.116;2022-11-20T11:10:37;7.30;99.90
7574;DHT22;3828;48.922;9.116;2022-11-20T11:15:38;7.40;99.90
7574;DHT22;3828;48.922;9.116;2022-11-20T11:18:08;7.50;99.90
7574;DHT22;3828;48.922;9.116;2022-11-20T11:20:37;7.60;99.90
7574;DHT22;3828;48.922;9.116;2022-11-20T11:23:04;7.80;99.90
7574;DHT22;3828;48.922;9.116;2022-11-20T11:25:32;8.00;99.90
7574;DHT22;3828;48.922;9.116;2022-11-20T11:28:01;8.50;99.90
7574;DHT22;3828;48.922;9.116;2022-11-20T11:30:29;8.50;99.90
7574;DHT22;3828;48.922;9.116;2022-11-20T11:33:10;10.10;99.90
7574;DHT22;3828;48.922;9.116;2022-11-20T11:35:45;10.40;99.90
7574;DHT22;3828;48.922;9.116;2022-11-20T11:38:15;11.00;99.90
7574;DHT22;3828;48.922;9.116;2022-11-20T11:40:43;11.10;99.90
7574;DHT22;3828;48.922;9.116;2022-11-20T11:43:18;11.20;99.90
7574;DHT22;3828;48.922;9.116;2022-11-20T11:46:00;11.10;99.90
7574;DHT22;3828;48.922;9.116;2022-11-20T11:48:27;11.40;99.90
7574;DHT22;3828;48.922;9.116;2022-11-20T11:50:55;11.30;99.90
7574;DHT22;3828;48.922;9.116;2022-11-20T11:53:23;10.90;99.90
7574;DHT22;3828;48.922;9.116;2022-11-20T11:55:56;10.90;99.90
7574;DHT22;3828;48.922;9.116;2022-11-20T11:58:34;10.90;99.90
7574;DHT22;3828;48.922;9.116;2022-11-20T12:01:17;11.00;99.90
7574;DHT22;3828;48.922;9.116;2022-11-20T12:03:53;12.20;99.90
7574;DHT22;3828;48.922;9.116;2022-11-20T12:06:23;12.50;99.90
7574;DHT22;3828;48.922;9.116;2022-11-20T12:08:54;10.80;99.90
7574;DHT22;3828;48.922;9.116;2022-11-20T12:11:29;10.80;99.90
7574;DHT22;3828;48.922;9.116;2022-11-20T12:14:02;10.40;99.90
7574;DHT22;3828;48.922;9.116;2022-11-20T12:16:33;10.50;99.90
7574;DHT22;3828;48.922;9.116;2022-11-20T12:19:01;10.90;99.90
7574;DHT22;3828;48.922;9.116;2022-11-20T12:21:38;11.20;99.90
7574;DHT22;3828;48.922;9.116;2022-11-20T12:27:11;11.70;99.90
7574;DHT22;3828;48.922;9.116;2022-11-20T12:29:54;11.60;99.90
7574;DHT22;3828;48.922;9.116;2022-11-20T12:35:37;11.30;99.90
7574;DHT22;3828;48.922;9.116;2022-11-20T12:38:35;10.90;99.90
7574;DHT22;3828;48.922;9.116;2022-11-20T12:41:13;11.10;99.90
7574;DHT22;3828;48.922;9.116;2022-11-20T12:44:12;11.50;99.90
7574;DHT22;3828;48.922;9.116;2022-11-20T12:47:07;11.50;99.90
7574;DHT22;3828;48.922;9.116;2022-11-20T12:49:39;10.50;99.90
7574;DHT22;3828;48.922;9.116;2022-11-20T12:52:18;10.30;99.90
7574;DHT22;3828;48.922;9.116;2022-11-20T12:55:03;10.20;99.90
7574;DHT22;3828;48.922;9.116;2022-11-20T12:57:41;10.20;99.90
7574;DHT22;3828;48.922;9.116;2022-11-20T13:00:15;10.20;99.90
7574;DHT22;3828;48.922;9.116;2022-11-20T13:05:51;10.10;99.90
7574;DHT22;3828;48.922;9.116;2022-11-20T13:08:22;10.00;99.90
7574;DHT22;3828;48.922;9.116;2022-11-20T13:10:55;9.80;99.90
7574;DHT22;3828;48.922;9.116;2022-11-20T13:13:29;9.70;99.90
7574;DHT22;3828;48.922;9.116;2022-11-20T13:16:00;9.60;99.90
7574;DHT22;3828;48.922;9.116;2022-11-20T13:18:35;9.60;99.90
7574;DHT22;3828;48.922;9.116;2022-11-20T13:21:13;9.50;99.90
7574;DHT22;3828;48.922;9.116;2022-11-20T13:23:40;9.50;99.90
7574;DHT22;3828;48.922;9.116;2022-11-20T13:26:19;9.40;99.90
7574;DHT22;3828;48.922;9.116;2022-11-20T13:28:48;9.40;99.90
7574;DHT22;3828;48.922;9.116;2022-11-20T13:31:33;9.40;99.90
7574;DHT22;3828;48.922;9.116;2022-11-20T13:34:03;9.40;99.90
7574;DHT22;3828;48.922;9.116;2022-11-20T13:36:31;9.40;99.90
7574;DHT22;3828;48.922;9.116;2022-11-20T13:39:00;9.70;99.90
7574;DHT22;3828;48.922;9.116;2022-11-20T13:41:30;9.70;99.90
7574;DHT22;3828;48.922;9.116;2022-11-20T13:44:05;9.70;99.90
7574;DHT22;3828;48.922;9.116;2022-11-20T13:46:37;9.70;99.90
7574;DHT22;3828;48.922;9.116;2022-11-20T13:49:09;9.50;99.90
7574;DHT22;3828;48.922;9.116;2022-11-20T13:51:41;9.40;99.90
7574;DHT22;3828;48.922;9.116;2022-11-20T13:54:27;9.40;99.90
7574;DHT22;3828;48.922;9.116;2022-11-20T13:57:08;9.40;99.90
7574;DHT22;3828;48.922;9.116;2022-11-20T13:59:47;13.70;99.90
7574;DHT22;3828;48.922;9.116;2022-11-20T14:02:18;9.20;99.90
7574;DHT22;3828;48.922;9.116;2022-11-20T14:04:46;9.20;99.90
7574;DHT22;3828;48.922;9.116;2022-11-20T14:07:14;9.10;99.90
7574;DHT22;3828;48.922;9.116;2022-11-20T14:09:50;9.00;99.90
7574;DHT22;3828;48.922;9.116;2022-11-20T14:12:22;9.00;99.90
7574;DHT22;3828;48.922;9.116;2022-11-20T14:14:50;8.90;99.90
7574;DHT22;3828;48.922;9.116;2022-11-20T14:17:20;8.80;99.90
7574;DHT22;3828;48.922;9.116;2022-11-20T14:19:49;8.80;99.90
7574;DHT22;3828;48.922;9.116;2022-11-20T14:22:20;8.80;99.90
7574;DHT22;3828;48.922;9.116;2022-11-20T14:24:47;8.70;99.90
7574;DHT22;3828;48.922;9.116;2022-11-20T14:27:17;8.70;99.90
7574;DHT22;3828;48.922;9.116;2022-11-20T14:29:46;8.70;99.90
7574;DHT22;3828;48.922;9.116;2022-11-20T14:32:16;8.60;99.90
7574;DHT22;3828;48.922;9.116;2022-11-20T14:34:45;8.60;99.90
7574;DHT22;3828;48.922;9.116;2022-11-20T14:37:18;8.50;99.90
7574;DHT22;3828;48.922;9.116;2022-11-20T14:39:49;8.60;99.90
7574;DHT22;3828;48.922;9.116;2022-11-20T14:42:19;8.50;99.90
7574;DHT22;3828;48.922;9.116;2022-11-20T14:44:48;8.50;99.90
7574;DHT22;3828;48.922;9.116;2022-11-20T14:47:19;8.50;99.90
7574;DHT22;3828;48.922;9.116;2022-11-20T14:49:48;8.50;99.90
7574;DHT22;3828;48.922;9.116;2022-11-20T14:52:17;8.50;99.90
7574;DHT22;3828;48.922;9.116;2022-11-20T14:54:45;8.40;99.90
7574;DHT22;3828;48.922;9.116;2022-11-20T14:57:24;8.40;99.90
7574;DHT22;3828;48.922;9.116;2022-11-20T15:00:04;8.40;99.90
7574;DHT22;3828;48.922;9.116;2022-11-20T15:02:31;8.40;99.90
7574;DHT22;3828;48.922;9.116;2022-11-20T15:04:59;8.30;99.90
7574;DHT22;3828;48.922;9.116;2022-11-20T15:07:30;8.30;99.90
7574;DHT22;3828;48.922;9.116;2022-11-20T15:10:01;8.30;99.90
7574;DHT22;3828;48.922;9.116;2022-11-20T15:12:29;8.20;99.90
7574;DHT22;3828;48.922;9.116;2022-11-20T15:14:58;8.20;99.90
7574;DHT22;3828;48.922;9.116;2022-11-20T15:17:25;8.20;99.90
7574;DHT22;3828;48.922;9.116;2022-11-20T15:19:52;9.60;99.90
7574;DHT22;3828;48.922;9.116;2022-11-20T15:22:20;8.00;99.90
7574;DHT22;3828;48.922;9.116;2022-11-20T15:24:46;7.90;99.90
7574;DHT22;3828;48.922;9.116;2022-11-20T15:27:13;7.90;99.90
7574;DHT22;3828;48.922;9.116;2022-11-20T15:29:41;8.30;99.90
7574;DHT22;3828;48.922;9.116;2022-11-20T15:32:09;9.50;99.90
7574;DHT22;3828;48.922;9.116;2022-11-20T15:34:36;7.70;99.90
7574;DHT22;3828;48.922;9.116;2022-11-20T15:37:03;7.50;99.90
7574;DHT22;3828;48.922;9.116;2022-11-20T15:39:30;8.70;99.90
7574;DHT22;3828;48.922;9.116;2022-11-20T15:41:56;7.30;99.90
7574;DHT22;3828;48.922;9.116;2022-11-20T15:44:23;7.20;99.90
7574;DHT22;3828;48.922;9.116;2022-11-20T15:46:51;7.10;99.90
7574;DHT22;3828;48.922;9.116;2022-11-20T15:49:19;7.00;99.90
7574;DHT22;3828;48.922;9.116;2022-11-20T15:51:48;8.60;99.90
7574;DHT22;3828;48.922;9.116;2022-11-20T15:54:17;6.90;99.90
7574;DHT22;3828;48.922;9.116;2022-11-20T15:56:45;8.70;99.90
7574;DHT22;3828;48.922;9.116;2022-11-20T15:59:12;6.80;99.90
7574;DHT22;3828;48.922;9.116;2022-11-20T16:01:40;6.80;99.90
7574;DHT22;3828;48.922;9.116;2022-11-20T16:04:10;6.70;99.90
7574;DHT22;3828;48.922;9.116;2022-11-20T16:06:39;8.50;99.90
7574;DHT22;3828;48.922;9.116;2022-11-20T16:09:06;6.70;99.90
7574;DHT22;3828;48.922;9.116;2022-11-20T16:11:33;6.70;99.90
7574;DHT22;3828;48.922;9.116;2022-11-20T16:14:00;8.50;99.90
7574;DHT22;3828;48.922;9.116;2022-11-20T16:16:45;6.60;99.90
7574;DHT22;3828;48.922;9.116;2022-11-20T16:19:13;6.60;99.90
7574;DHT22;3828;48.922;9.116;2022-11-20T16:21:42;6.60;99.90
7574;DHT22;3828;48.922;9.116;2022-11-20T16:24:11;6.60;99.90
7574;DHT22;3828;48.922;9.116;2022-11-20T16:26:39;6.50;99.90
7574;DHT22;3828;48.922;9.116;2022-11-20T16:29:06;6.50;99.90
7574;DHT22;3828;48.922;9.116;2022-11-20T16:31:34;6.50;99.90
7574;DHT22;3828;48.922;9.116;2022-11-20T16:34:03;6.50;99.90
7574;DHT22;3828;48.922;9.116;2022-11-20T16:36:30;6.80;99.90
7574;DHT22;3828;48.922;9.116;2022-11-20T16:38:59;6.50;99.90
7574;DHT22;3828;48.922;9.116;2022-11-20T16:41:29;6.50;99.90
7574;DHT22;3828;48.922;9.116;2022-11-20T16:43:57;6.50;99.90
7574;DHT22;3828;48.922;9.116;2022-11-20T16:46:25;6.50;99.90
7574;DHT22;3828;48.922;9.116;2022-11-20T16:48:53;6.50;99.90
7574;DHT22;3828;48.922;9.116;2022-11-20T16:53:48;6.60;99.90
7574;DHT22;3828;48.922;9.116;2022-11-20T16:56:19;6.60;99.90
7574;DHT22;3828;48.922;9.116;2022-11-20T16:58:47;6.60;99.90
7574;DHT22;3828;48.922;9.116;2022-11-20T17:01:16;7.40;99.90
7574;DHT22;3828;48.922;9.116;2022-11-20T17:03:46;6.70;99.90
7574;DHT22;3828;48.922;9.116;2022-11-20T17:06:14;6.70;99.90
7574;DHT22;3828;48.922;9.116;2022-11-20T17:08:41;6.70;99.90
7574;DHT22;3828;48.922;9.116;2022-11-20T17:11:09;6.70;99.90
7574;DHT22;3828;48.922;9.116;2022-11-20T17:13:38;6.70;99.90
7574;DHT22;3828;48.922;9.116;2022-11-20T17:16:09;6.70;99.90
7574;DHT22;3828;48.922;9.116;2022-11-20T17:18:36;8.30;99.90
7574;DHT22;3828;48.922;9.116;2022-11-20T17:21:03;6.70;99.90
7574;DHT22;3828;48.922;9.116;2022-11-20T17:23:30;6.70;99.90
7574;DHT22;3828;48.922;9.116;2022-11-20T17:26:01;6.70;99.90